sensor_id;sensor_type;location;lat;lon;timestamp;P1;durP1;ratioP1;P2;durP2;ratioP2
12880;SDS011;6508;53.786;9.996;2022-07-23T00:00:31;4.72;;;3.53;;
12880;SDS011;6508;53.786;9.996;2022-07-23T00:03:05;4.25;;;3.85;;
12880;SDS011;6508;53.786;9.996;2022-07-23T00:05:32;3.47;;;3.28;;
12880;SDS011;6508;53.786;9.996;2022-07-23T00:08:02;3.38;;;3.08;;
12880;SDS011;6508;53.786;9.996;2022-07-23T00:10:33;5.32;;;3.85;;
12880;SDS011;6508;53.786;9.996;2022-07-23T00:13:00;3.58;;;3.33;;
12880;SDS011;6508;53.786;9.996;2022-07-23T00:15:28;4.00;;;3.25;;
12880;SDS011;6508;53.786;9.996;2022-07-23T00:17:55;3.45;;;3.13;;
12880;SDS011;6508;53.786;9.996;2022-07-23T00:20:23;4.15;;;3.72;;
12880;SDS011;6508;53.786;9.996;2022-07-23T00:22:51;5.47;;;3.88;;
12880;SDS011;6508;53.786;9.996;2022-07-23T00:25:19;3.92;;;3.65;;
12880;SDS011;6508;53.786;9.996;2022-07-23T00:27:58;3.20;;;3.00;;
12880;SDS011;6508;53.786;9.996;2022-07-23T00:30:27;3.00;;;2.80;;
12880;SDS011;6508;53.786;9.996;2022-07-23T00:32:57;3.45;;;3.15;;
12880;SDS011;6508;53.786;9.996;2022-07-23T00:35:26;3.40;;;3.10;;
12880;SDS011;6508;53.786;9.996;2022-07-23T00:37:53;3.58;;;2.92;;
12880;SDS011;6508;53.786;9.996;2022-07-23T00:40:22;3.03;;;2.83;;
12880;SDS011;6508;53.786;9.996;2022-07-23T00:42:50;3.85;;;3.10;;
12880;SDS011;6508;53.786;9.996;2022-07-23T00:45:19;2.95;;;2.85;;
12880;SDS011;6508;53.786;9.996;2022-07-23T00:47:46;3.17;;;2.88;;
12880;SDS011;6508;53.786;9.996;2022-07-23T00:50:14;5.82;;;3.53;;
12880;SDS011;6508;53.786;9.996;2022-07-23T00:52:42;3.30;;;3.10;;
12880;SDS011;6508;53.786;9.996;2022-07-23T00:55:11;3.47;;;3.20;;
12880;SDS011;6508;53.786;9.996;2022-07-23T00:57:39;3.10;;;3.00;;
12880;SDS011;6508;53.786;9.996;2022-07-23T01:00:08;2.92;;;2.83;;
12880;SDS011;6508;53.786;9.996;2022-07-23T01:02:38;3.20;;;2.90;;
12880;SDS011;6508;53.786;9.996;2022-07-23T01:05:06;3.10;;;2.72;;
12880;SDS011;6508;53.786;9.996;2022-07-23T01:07:34;2.80;;;2.70;;
12880;SDS011;6508;53.786;9.996;2022-07-23T01:10:02;4.90;;;3.53;;
12880;SDS011;6508;53.786;9.996;2022-07-23T01:12:32;4.70;;;2.90;;
12880;SDS011;6508;53.786;9.996;2022-07-23T01:14:59;3.10;;;2.90;;
12880;SDS011;6508;53.786;9.996;2022-07-23T01:17:29;3.28;;;2.92;;
12880;SDS011;6508;53.786;9.996;2022-07-23T01:19:59;3.30;;;3.05;;
12880;SDS011;6508;53.786;9.996;2022-07-23T01:22:29;2.85;;;2.65;;
12880;SDS011;6508;53.786;9.996;2022-07-23T01:24:57;3.00;;;2.80;;
12880;SDS011;6508;53.786;9.996;2022-07-23T01:27:26;3.13;;;2.72;;
12880;SDS011;6508;53.786;9.996;2022-07-23T01:29:59;3.22;;;3.03;;
12880;SDS011;6508;53.786;9.996;2022-07-23T01:32:28;3.00;;;2.85;;
12880;SDS011;6508;53.786;9.996;2022-07-23T01:34:56;3.83;;;3.55;;
12880;SDS011;6508;53.786;9.996;2022-07-23T01:37:23;3.38;;;3.17;;
12880;SDS011;6508;53.786;9.996;2022-07-23T01:39:53;3.50;;;3.20;;
12880;SDS011;6508;53.786;9.996;2022-07-23T01:42:21;3.72;;;3.35;;
12880;SDS011;6508;53.786;9.996;2022-07-23T01:44:49;3.22;;;3.03;;
12880;SDS011;6508;53.786;9.996;2022-07-23T01:47:19;3.50;;;3.30;;
12880;SDS011;6508;53.786;9.996;2022-07-23T01:49:50;4.32;;;3.15;;
12880;SDS011;6508;53.786;9.996;2022-07-23T01:52:41;3.05;;;2.95;;
12880;SDS011;6508;53.786;9.996;2022-07-23T01:55:10;3.03;;;2.83;;
12880;SDS011;6508;53.786;9.996;2022-07-23T01:57:46;3.05;;;2.88;;
12880;SDS011;6508;53.786;9.996;2022-07-23T02:00:17;3.00;;;2.80;;
12880;SDS011;6508;53.786;9.996;2022-07-23T02:02:47;3.97;;;3.60;;
12880;SDS011;6508;53.786;9.996;2022-07-23T02:05:15;3.90;;;3.70;;
12880;SDS011;6508;53.786;9.996;2022-07-23T02:07:44;4.38;;;3.97;;
12880;SDS011;6508;53.786;9.996;2022-07-23T02:10:13;3.92;;;3.63;;
12880;SDS011;6508;53.786;9.996;2022-07-23T02:12:40;4.28;;;3.33;;
12880;SDS011;6508;53.786;9.996;2022-07-23T02:15:10;3.22;;;3.03;;
12880;SDS011;6508;53.786;9.996;2022-07-23T02:17:40;2.95;;;2.72;;
12880;SDS011;6508;53.786;9.996;2022-07-23T02:20:08;3.15;;;2.95;;
12880;SDS011;6508;53.786;9.996;2022-07-23T02:22:36;3.28;;;2.92;;
12880;SDS011;6508;53.786;9.996;2022-07-23T02:25:04;4.47;;;2.90;;
12880;SDS011;6508;53.786;9.996;2022-07-23T02:27:34;3.33;;;3.13;;
12880;SDS011;6508;53.786;9.996;2022-07-23T02:30:05;2.95;;;2.75;;
12880;SDS011;6508;53.786;9.996;2022-07-23T02:32:33;3.15;;;2.95;;
12880;SDS011;6508;53.786;9.996;2022-07-23T02:35:01;3.55;;;3.35;;
12880;SDS011;6508;53.786;9.996;2022-07-23T02:37:29;3.42;;;3.00;;
12880;SDS011;6508;53.786;9.996;2022-07-23T02:39:57;3.17;;;3.03;;
12880;SDS011;6508;53.786;9.996;2022-07-23T02:42:25;3.35;;;3.13;;
12880;SDS011;6508;53.786;9.996;2022-07-23T02:44:54;3.95;;;3.03;;
12880;SDS011;6508;53.786;9.996;2022-07-23T02:47:22;3.65;;;3.42;;
12880;SDS011;6508;53.786;9.996;2022-07-23T02:49:49;3.65;;;3.45;;
12880;SDS011;6508;53.786;9.996;2022-07-23T02:52:17;3.15;;;2.97;;
12880;SDS011;6508;53.786;9.996;2022-07-23T02:54:45;3.30;;;3.03;;
12880;SDS011;6508;53.786;9.996;2022-07-23T02:57:15;3.38;;;3.17;;
12880;SDS011;6508;53.786;9.996;2022-07-23T02:59:42;3.22;;;3.03;;
12880;SDS011;6508;53.786;9.996;2022-07-23T03:02:11;4.88;;;3.33;;
12880;SDS011;6508;53.786;9.996;2022-07-23T03:04:39;3.13;;;2.92;;
12880;SDS011;6508;53.786;9.996;2022-07-23T03:07:10;3.72;;;3.08;;
12880;SDS011;6508;53.786;9.996;2022-07-23T03:09:38;3.60;;;3.30;;
12880;SDS011;6508;53.786;9.996;2022-07-23T03:12:07;3.33;;;3.03;;
12880;SDS011;6508;53.786;9.996;2022-07-23T03:14:39;3.65;;;3.42;;
12880;SDS011;6508;53.786;9.996;2022-07-23T03:17:07;3.40;;;3.30;;
12880;SDS011;6508;53.786;9.996;2022-07-23T03:19:37;5.97;;;3.00;;
12880;SDS011;6508;53.786;9.996;2022-07-23T03:22:06;3.55;;;3.22;;
12880;SDS011;6508;53.786;9.996;2022-07-23T03:24:34;4.28;;;3.55;;
12880;SDS011;6508;53.786;9.996;2022-07-23T03:27:23;4.00;;;3.65;;
12880;SDS011;6508;53.786;9.996;2022-07-23T03:29:51;3.67;;;3.47;;
12880;SDS011;6508;53.786;9.996;2022-07-23T03:32:18;3.65;;;3.35;;
12880;SDS011;6508;53.786;9.996;2022-07-23T03:34:48;3.40;;;3.20;;
12880;SDS011;6508;53.786;9.996;2022-07-23T03:37:15;3.65;;;3.40;;
12880;SDS011;6508;53.786;9.996;2022-07-23T03:39:44;3.75;;;3.53;;
12880;SDS011;6508;53.786;9.996;2022-07-23T03:42:12;3.88;;;3.67;;
12880;SDS011;6508;53.786;9.996;2022-07-23T03:44:40;4.13;;;3.25;;
12880;SDS011;6508;53.786;9.996;2022-07-23T03:47:08;4.07;;;3.78;;
12880;SDS011;6508;53.786;9.996;2022-07-23T03:49:35;5.43;;;4.57;;
12880;SDS011;6508;53.786;9.996;2022-07-23T03:52:04;3.55;;;3.35;;
12880;SDS011;6508;53.786;9.996;2022-07-23T03:54:32;4.07;;;3.83;;
12880;SDS011;6508;53.786;9.996;2022-07-23T03:57:01;3.72;;;3.53;;
12880;SDS011;6508;53.786;9.996;2022-07-23T03:59:30;3.67;;;3.47;;
12880;SDS011;6508;53.786;9.996;2022-07-23T04:01:58;3.55;;;3.20;;
12880;SDS011;6508;53.786;9.996;2022-07-23T04:04:26;3.40;;;2.70;;
12880;SDS011;6508;53.786;9.996;2022-07-23T04:06:54;2.75;;;2.55;;
12880;SDS011;6508;53.786;9.996;2022-07-23T04:09:24;3.47;;;2.67;;
12880;SDS011;6508;53.786;9.996;2022-07-23T04:11:51;2.80;;;2.60;;
12880;SDS011;6508;53.786;9.996;2022-07-23T04:14:19;3.00;;;2.90;;
12880;SDS011;6508;53.786;9.996;2022-07-23T04:16:47;3.15;;;2.95;;
12880;SDS011;6508;53.786;9.996;2022-07-23T04:19:15;3.88;;;3.58;;
12880;SDS011;6508;53.786;9.996;2022-07-23T04:21:53;3.42;;;3.13;;
12880;SDS011;6508;53.786;9.996;2022-07-23T04:24:21;3.65;;;3.08;;
12880;SDS011;6508;53.786;9.996;2022-07-23T04:26:50;4.28;;;3.05;;
12880;SDS011;6508;53.786;9.996;2022-07-23T04:29:18;3.03;;;2.92;;
12880;SDS011;6508;53.786;9.996;2022-07-23T04:31:46;3.13;;;2.92;;
12880;SDS011;6508;53.786;9.996;2022-07-23T04:34:14;3.20;;;3.10;;
12880;SDS011;6508;53.786;9.996;2022-07-23T04:36:42;3.72;;;3.38;;
12880;SDS011;6508;53.786;9.996;2022-07-23T04:39:09;3.20;;;3.08;;
12880;SDS011;6508;53.786;9.996;2022-07-23T04:41:37;2.92;;;2.83;;
12880;SDS011;6508;53.786;9.996;2022-07-23T04:44:06;3.03;;;2.92;;
12880;SDS011;6508;53.786;9.996;2022-07-23T04:46:34;2.60;;;2.50;;
12880;SDS011;6508;53.786;9.996;2022-07-23T04:49:03;2.97;;;2.70;;
12880;SDS011;6508;53.786;9.996;2022-07-23T04:51:32;2.95;;;2.75;;
12880;SDS011;6508;53.786;9.996;2022-07-23T04:54:00;3.30;;;2.75;;
12880;SDS011;6508;53.786;9.996;2022-07-23T04:56:27;3.08;;;2.90;;
12880;SDS011;6508;53.786;9.996;2022-07-23T04:58:55;3.00;;;2.80;;
12880;SDS011;6508;53.786;9.996;2022-07-23T05:01:24;2.72;;;2.60;;
12880;SDS011;6508;53.786;9.996;2022-07-23T05:03:52;2.70;;;2.60;;
12880;SDS011;6508;53.786;9.996;2022-07-23T05:06:20;2.60;;;2.50;;
12880;SDS011;6508;53.786;9.996;2022-07-23T05:08:47;2.88;;;2.65;;
12880;SDS011;6508;53.786;9.996;2022-07-23T05:11:15;2.47;;;2.35;;
12880;SDS011;6508;53.786;9.996;2022-07-23T05:13:43;3.80;;;2.60;;
12880;SDS011;6508;53.786;9.996;2022-07-23T05:16:10;2.55;;;2.38;;
12880;SDS011;6508;53.786;9.996;2022-07-23T05:18:40;2.58;;;2.47;;
12880;SDS011;6508;53.786;9.996;2022-07-23T05:21:07;3.47;;;2.30;;
12880;SDS011;6508;53.786;9.996;2022-07-23T05:23:35;2.97;;;2.55;;
12880;SDS011;6508;53.786;9.996;2022-07-23T05:26:03;2.58;;;2.38;;
12880;SDS011;6508;53.786;9.996;2022-07-23T05:28:31;2.75;;;2.47;;
12880;SDS011;6508;53.786;9.996;2022-07-23T05:30:59;2.83;;;2.60;;
12880;SDS011;6508;53.786;9.996;2022-07-23T05:33:28;3.05;;;2.83;;
12880;SDS011;6508;53.786;9.996;2022-07-23T05:36:01;2.80;;;2.60;;
12880;SDS011;6508;53.786;9.996;2022-07-23T05:38:31;2.25;;;2.15;;
12880;SDS011;6508;53.786;9.996;2022-07-23T05:40:59;2.45;;;2.25;;
12880;SDS011;6508;53.786;9.996;2022-07-23T05:43:28;2.90;;;2.70;;
12880;SDS011;6508;53.786;9.996;2022-07-23T05:45:59;2.20;;;2.10;;
12880;SDS011;6508;53.786;9.996;2022-07-23T05:48:26;2.70;;;2.50;;
12880;SDS011;6508;53.786;9.996;2022-07-23T05:51:06;2.70;;;2.50;;
12880;SDS011;6508;53.786;9.996;2022-07-23T05:53:34;3.25;;;2.72;;
12880;SDS011;6508;53.786;9.996;2022-07-23T05:56:15;2.90;;;2.80;;
12880;SDS011;6508;53.786;9.996;2022-07-23T05:58:43;4.22;;;3.20;;
12880;SDS011;6508;53.786;9.996;2022-07-23T06:01:11;3.30;;;3.20;;
12880;SDS011;6508;53.786;9.996;2022-07-23T06:03:48;3.20;;;3.08;;
12880;SDS011;6508;53.786;9.996;2022-07-23T06:06:17;3.00;;;2.90;;
12880;SDS011;6508;53.786;9.996;2022-07-23T06:08:45;2.72;;;2.63;;
12880;SDS011;6508;53.786;9.996;2022-07-23T06:11:13;2.80;;;2.50;;
12880;SDS011;6508;53.786;9.996;2022-07-23T06:13:41;2.67;;;2.47;;
12880;SDS011;6508;53.786;9.996;2022-07-23T06:16:09;2.97;;;2.72;;
12880;SDS011;6508;53.786;9.996;2022-07-23T06:18:36;3.33;;;2.42;;
12880;SDS011;6508;53.786;9.996;2022-07-23T06:21:05;2.80;;;2.70;;
12880;SDS011;6508;53.786;9.996;2022-07-23T06:23:54;2.72;;;2.53;;
12880;SDS011;6508;53.786;9.996;2022-07-23T06:26:23;2.25;;;2.10;;
12880;SDS011;6508;53.786;9.996;2022-07-23T06:28:50;2.60;;;2.40;;
12880;SDS011;6508;53.786;9.996;2022-07-23T06:31:18;3.28;;;2.70;;
12880;SDS011;6508;53.786;9.996;2022-07-23T06:33:46;2.90;;;2.80;;
12880;SDS011;6508;53.786;9.996;2022-07-23T06:36:13;3.60;;;3.45;;
12880;SDS011;6508;53.786;9.996;2022-07-23T06:38:41;3.53;;;3.25;;
12880;SDS011;6508;53.786;9.996;2022-07-23T06:41:11;3.22;;;3.03;;
12880;SDS011;6508;53.786;9.996;2022-07-23T06:43:39;3.08;;;2.88;;
12880;SDS011;6508;53.786;9.996;2022-07-23T06:46:07;2.63;;;2.47;;
12880;SDS011;6508;53.786;9.996;2022-07-23T06:48:35;3.05;;;2.70;;
12880;SDS011;6508;53.786;9.996;2022-07-23T06:51:03;2.55;;;2.45;;
12880;SDS011;6508;53.786;9.996;2022-07-23T06:53:31;2.33;;;2.22;;
12880;SDS011;6508;53.786;9.996;2022-07-23T06:56:00;2.30;;;2.20;;
12880;SDS011;6508;53.786;9.996;2022-07-23T06:58:29;2.67;;;2.55;;
12880;SDS011;6508;53.786;9.996;2022-07-23T07:00:56;2.42;;;2.22;;
12880;SDS011;6508;53.786;9.996;2022-07-23T07:03:24;2.53;;;2.42;;
12880;SDS011;6508;53.786;9.996;2022-07-23T07:05:52;2.08;;;2.08;;
12880;SDS011;6508;53.786;9.996;2022-07-23T07:08:19;2.25;;;2.10;;
12880;SDS011;6508;53.786;9.996;2022-07-23T07:10:47;2.28;;;2.25;;
12880;SDS011;6508;53.786;9.996;2022-07-23T07:13:14;2.95;;;2.75;;
12880;SDS011;6508;53.786;9.996;2022-07-23T07:15:43;2.80;;;2.70;;
12880;SDS011;6508;53.786;9.996;2022-07-23T07:18:11;3.15;;;3.05;;
12880;SDS011;6508;53.786;9.996;2022-07-23T07:20:39;4.28;;;4.18;;
12880;SDS011;6508;53.786;9.996;2022-07-23T07:23:06;3.95;;;3.72;;
12880;SDS011;6508;53.786;9.996;2022-07-23T07:25:34;4.03;;;3.75;;
12880;SDS011;6508;53.786;9.996;2022-07-23T07:28:02;3.60;;;3.50;;
12880;SDS011;6508;53.786;9.996;2022-07-23T07:30:30;4.85;;;4.20;;
12880;SDS011;6508;53.786;9.996;2022-07-23T07:33:01;4.10;;;4.00;;
12880;SDS011;6508;53.786;9.996;2022-07-23T07:35:28;4.93;;;4.63;;
12880;SDS011;6508;53.786;9.996;2022-07-23T07:37:57;4.88;;;4.75;;
12880;SDS011;6508;53.786;9.996;2022-07-23T07:40:25;4.68;;;4.47;;
12880;SDS011;6508;53.786;9.996;2022-07-23T07:42:59;5.88;;;4.68;;
12880;SDS011;6508;53.786;9.996;2022-07-23T07:45:28;3.88;;;3.58;;
12880;SDS011;6508;53.786;9.996;2022-07-23T07:47:55;3.20;;;3.10;;
12880;SDS011;6508;53.786;9.996;2022-07-23T07:50:25;3.33;;;3.13;;
12880;SDS011;6508;53.786;9.996;2022-07-23T07:52:52;3.95;;;3.75;;
12880;SDS011;6508;53.786;9.996;2022-07-23T07:55:20;3.40;;;3.20;;
12880;SDS011;6508;53.786;9.996;2022-07-23T07:57:48;3.92;;;3.72;;
12880;SDS011;6508;53.786;9.996;2022-07-23T08:00:15;3.72;;;3.40;;
12880;SDS011;6508;53.786;9.996;2022-07-23T08:02:44;3.40;;;3.30;;
12880;SDS011;6508;53.786;9.996;2022-07-23T08:05:12;3.15;;;3.00;;
12880;SDS011;6508;53.786;9.996;2022-07-23T08:07:41;2.75;;;2.60;;
12880;SDS011;6508;53.786;9.996;2022-07-23T08:10:09;3.30;;;3.20;;
12880;SDS011;6508;53.786;9.996;2022-07-23T08:12:37;4.07;;;2.90;;
12880;SDS011;6508;53.786;9.996;2022-07-23T08:15:06;3.45;;;3.35;;
12880;SDS011;6508;53.786;9.996;2022-07-23T08:17:39;3.75;;;3.55;;
12880;SDS011;6508;53.786;9.996;2022-07-23T08:20:07;4.55;;;4.18;;
12880;SDS011;6508;53.786;9.996;2022-07-23T08:22:47;4.95;;;4.75;;
12880;SDS011;6508;53.786;9.996;2022-07-23T08:25:16;4.47;;;4.28;;
12880;SDS011;6508;53.786;9.996;2022-07-23T08:27:44;4.85;;;4.57;;
12880;SDS011;6508;53.786;9.996;2022-07-23T08:30:12;4.93;;;4.70;;
12880;SDS011;6508;53.786;9.996;2022-07-23T08:32:47;5.45;;;5.25;;
12880;SDS011;6508;53.786;9.996;2022-07-23T08:35:15;4.80;;;4.70;;
12880;SDS011;6508;53.786;9.996;2022-07-23T08:37:42;5.03;;;4.82;;
12880;SDS011;6508;53.786;9.996;2022-07-23T08:40:12;4.30;;;4.07;;
12880;SDS011;6508;53.786;9.996;2022-07-23T08:42:39;5.13;;;4.93;;
12880;SDS011;6508;53.786;9.996;2022-07-23T08:45:08;4.22;;;4.03;;
12880;SDS011;6508;53.786;9.996;2022-07-23T08:47:36;4.03;;;3.92;;
12880;SDS011;6508;53.786;9.996;2022-07-23T08:50:05;7.03;;;6.82;;
12880;SDS011;6508;53.786;9.996;2022-07-23T08:52:34;8.73;;;8.35;;
12880;SDS011;6508;53.786;9.996;2022-07-23T08:55:03;7.45;;;7.22;;
12880;SDS011;6508;53.786;9.996;2022-07-23T08:57:32;7.05;;;6.75;;
12880;SDS011;6508;53.786;9.996;2022-07-23T09:00:00;5.78;;;5.47;;
12880;SDS011;6508;53.786;9.996;2022-07-23T09:02:28;6.72;;;6.50;;
12880;SDS011;6508;53.786;9.996;2022-07-23T09:04:55;7.47;;;7.18;;
12880;SDS011;6508;53.786;9.996;2022-07-23T09:07:23;7.35;;;7.05;;
12880;SDS011;6508;53.786;9.996;2022-07-23T09:10:03;7.22;;;7.03;;
12880;SDS011;6508;53.786;9.996;2022-07-23T09:12:33;6.80;;;6.50;;
12880;SDS011;6508;53.786;9.996;2022-07-23T09:15:04;7.95;;;7.65;;
12880;SDS011;6508;53.786;9.996;2022-07-23T09:17:39;7.57;;;7.32;;
12880;SDS011;6508;53.786;9.996;2022-07-23T09:20:07;6.55;;;6.35;;
12880;SDS011;6508;53.786;9.996;2022-07-23T09:22:35;6.10;;;5.90;;
12880;SDS011;6508;53.786;9.996;2022-07-23T09:25:08;5.72;;;5.43;;
12880;SDS011;6508;53.786;9.996;2022-07-23T09:27:47;6.38;;;6.18;;
12880;SDS011;6508;53.786;9.996;2022-07-23T09:30:21;6.18;;;5.97;;
12880;SDS011;6508;53.786;9.996;2022-07-23T09:33:04;6.50;;;6.30;;
12880;SDS011;6508;53.786;9.996;2022-07-23T09:35:48;5.63;;;5.53;;
12880;SDS011;6508;53.786;9.996;2022-07-23T09:38:16;6.72;;;6.43;;
12880;SDS011;6508;53.786;9.996;2022-07-23T09:40:44;5.70;;;5.60;;
12880;SDS011;6508;53.786;9.996;2022-07-23T09:43:13;5.65;;;5.45;;
12880;SDS011;6508;53.786;9.996;2022-07-23T09:48:43;6.15;;;5.95;;
12880;SDS011;6508;53.786;9.996;2022-07-23T09:51:11;5.38;;;5.18;;
12880;SDS011;6508;53.786;9.996;2022-07-23T09:53:38;5.05;;;4.75;;
12880;SDS011;6508;53.786;9.996;2022-07-23T09:56:06;5.20;;;5.00;;
12880;SDS011;6508;53.786;9.996;2022-07-23T09:58:36;5.63;;;5.43;;
12880;SDS011;6508;53.786;9.996;2022-07-23T10:01:11;6.47;;;6.28;;
12880;SDS011;6508;53.786;9.996;2022-07-23T10:03:40;6.88;;;6.57;;
12880;SDS011;6508;53.786;9.996;2022-07-23T10:06:34;7.82;;;7.18;;
12880;SDS011;6508;53.786;9.996;2022-07-23T10:09:25;6.97;;;6.78;;
12880;SDS011;6508;53.786;9.996;2022-07-23T10:12:19;6.97;;;6.78;;
12880;SDS011;6508;53.786;9.996;2022-07-23T10:15:03;7.38;;;7.10;;
12880;SDS011;6508;53.786;9.996;2022-07-23T10:17:31;7.93;;;7.63;;
12880;SDS011;6508;53.786;9.996;2022-07-23T10:19:59;8.50;;;8.30;;
12880;SDS011;6508;53.786;9.996;2022-07-23T10:22:27;10.70;;;10.40;;
12880;SDS011;6508;53.786;9.996;2022-07-23T10:24:59;7.20;;;7.00;;
12880;SDS011;6508;53.786;9.996;2022-07-23T10:27:38;6.22;;;6.03;;
12880;SDS011;6508;53.786;9.996;2022-07-23T10:30:10;5.65;;;5.40;;
12880;SDS011;6508;53.786;9.996;2022-07-23T10:32:42;5.40;;;4.90;;
12880;SDS011;6508;53.786;9.996;2022-07-23T10:35:13;4.93;;;4.82;;
12880;SDS011;6508;53.786;9.996;2022-07-23T10:37:45;4.28;;;4.18;;
12880;SDS011;6508;53.786;9.996;2022-07-23T10:40:15;4.18;;;4.07;;
12880;SDS011;6508;53.786;9.996;2022-07-23T10:42:44;3.90;;;3.80;;
12880;SDS011;6508;53.786;9.996;2022-07-23T10:45:23;4.40;;;4.10;;
12880;SDS011;6508;53.786;9.996;2022-07-23T10:47:51;4.10;;;4.00;;
12880;SDS011;6508;53.786;9.996;2022-07-23T10:50:19;4.35;;;4.25;;
12880;SDS011;6508;53.786;9.996;2022-07-23T10:55:42;3.80;;;3.70;;
12880;SDS011;6508;53.786;9.996;2022-07-23T10:58:10;3.80;;;3.70;;
12880;SDS011;6508;53.786;9.996;2022-07-23T11:00:39;3.85;;;3.75;;
12880;SDS011;6508;53.786;9.996;2022-07-23T11:05:49;3.83;;;3.72;;
12880;SDS011;6508;53.786;9.996;2022-07-23T11:08:18;3.83;;;3.53;;
12880;SDS011;6508;53.786;9.996;2022-07-23T11:10:47;3.30;;;3.28;;
12880;SDS011;6508;53.786;9.996;2022-07-23T11:13:31;3.40;;;3.30;;
12880;SDS011;6508;53.786;9.996;2022-07-23T11:16:16;3.67;;;3.58;;
12880;SDS011;6508;53.786;9.996;2022-07-23T11:18:54;3.30;;;3.20;;
12880;SDS011;6508;53.786;9.996;2022-07-23T11:24:06;3.30;;;3.20;;
12880;SDS011;6508;53.786;9.996;2022-07-23T11:26:44;3.15;;;3.00;;
12880;SDS011;6508;53.786;9.996;2022-07-23T11:32:01;3.17;;;3.08;;
12880;SDS011;6508;53.786;9.996;2022-07-23T11:34:29;2.88;;;2.80;;
12880;SDS011;6508;53.786;9.996;2022-07-23T11:36:57;3.30;;;3.20;;
12880;SDS011;6508;53.786;9.996;2022-07-23T11:39:26;3.28;;;3.17;;
12880;SDS011;6508;53.786;9.996;2022-07-23T11:41:54;3.42;;;3.33;;
12880;SDS011;6508;53.786;9.996;2022-07-23T11:44:25;3.40;;;3.30;;
12880;SDS011;6508;53.786;9.996;2022-07-23T11:46:56;3.25;;;3.10;;
12880;SDS011;6508;53.786;9.996;2022-07-23T11:49:26;3.35;;;3.15;;
12880;SDS011;6508;53.786;9.996;2022-07-23T11:52:04;2.60;;;2.50;;
12880;SDS011;6508;53.786;9.996;2022-07-23T11:54:32;2.90;;;2.80;;
12880;SDS011;6508;53.786;9.996;2022-07-23T11:57:05;2.65;;;2.45;;
12880;SDS011;6508;53.786;9.996;2022-07-23T11:59:33;4.28;;;2.58;;
12880;SDS011;6508;53.786;9.996;2022-07-23T12:02:02;2.70;;;2.60;;
12880;SDS011;6508;53.786;9.996;2022-07-23T12:04:38;2.92;;;2.75;;
12880;SDS011;6508;53.786;9.996;2022-07-23T12:09:48;2.38;;;2.38;;
12880;SDS011;6508;53.786;9.996;2022-07-23T12:12:16;3.15;;;2.95;;
12880;SDS011;6508;53.786;9.996;2022-07-23T12:14:47;2.70;;;2.50;;
12880;SDS011;6508;53.786;9.996;2022-07-23T12:17:15;2.50;;;2.40;;
12880;SDS011;6508;53.786;9.996;2022-07-23T12:19:44;2.80;;;2.70;;
12880;SDS011;6508;53.786;9.996;2022-07-23T12:22:15;3.67;;;3.58;;
12880;SDS011;6508;53.786;9.996;2022-07-23T12:24:52;3.20;;;3.10;;
12880;SDS011;6508;53.786;9.996;2022-07-23T12:27:20;3.50;;;3.40;;
12880;SDS011;6508;53.786;9.996;2022-07-23T12:29:47;3.50;;;3.40;;
12880;SDS011;6508;53.786;9.996;2022-07-23T12:32:19;3.67;;;3.55;;
12880;SDS011;6508;53.786;9.996;2022-07-23T12:35:01;3.17;;;3.08;;
12880;SDS011;6508;53.786;9.996;2022-07-23T12:37:30;3.00;;;2.90;;
12880;SDS011;6508;53.786;9.996;2022-07-23T12:39:58;3.00;;;3.00;;
12880;SDS011;6508;53.786;9.996;2022-07-23T12:42:26;2.67;;;2.67;;
12880;SDS011;6508;53.786;9.996;2022-07-23T12:45:03;3.28;;;3.17;;
12880;SDS011;6508;53.786;9.996;2022-07-23T12:53:02;3.60;;;3.42;;
12880;SDS011;6508;53.786;9.996;2022-07-23T12:55:31;3.20;;;3.10;;
12880;SDS011;6508;53.786;9.996;2022-07-23T12:58:19;3.10;;;2.90;;
12880;SDS011;6508;53.786;9.996;2022-07-23T13:00:50;3.05;;;2.95;;
12880;SDS011;6508;53.786;9.996;2022-07-23T13:03:24;3.05;;;2.95;;
12880;SDS011;6508;53.786;9.996;2022-07-23T13:05:52;3.15;;;3.05;;
12880;SDS011;6508;53.786;9.996;2022-07-23T13:08:21;3.20;;;3.10;;
12880;SDS011;6508;53.786;9.996;2022-07-23T13:10:49;3.80;;;3.42;;
12880;SDS011;6508;53.786;9.996;2022-07-23T13:13:19;3.20;;;3.10;;
12880;SDS011;6508;53.786;9.996;2022-07-23T13:15:47;3.38;;;3.28;;
12880;SDS011;6508;53.786;9.996;2022-07-23T13:18:15;3.50;;;3.30;;
12880;SDS011;6508;53.786;9.996;2022-07-23T13:20:46;5.00;;;3.63;;
12880;SDS011;6508;53.786;9.996;2022-07-23T13:23:15;4.38;;;4.07;;
12880;SDS011;6508;53.786;9.996;2022-07-23T13:25:44;3.70;;;3.60;;
12880;SDS011;6508;53.786;9.996;2022-07-23T13:28:12;3.65;;;3.55;;
12880;SDS011;6508;53.786;9.996;2022-07-23T13:30:42;3.40;;;3.30;;
12880;SDS011;6508;53.786;9.996;2022-07-23T13:33:10;3.45;;;3.35;;
12880;SDS011;6508;53.786;9.996;2022-07-23T13:35:37;3.08;;;2.97;;
12880;SDS011;6508;53.786;9.996;2022-07-23T13:38:05;3.05;;;2.95;;
12880;SDS011;6508;53.786;9.996;2022-07-23T13:40:36;2.90;;;2.80;;
12880;SDS011;6508;53.786;9.996;2022-07-23T13:43:07;3.03;;;3.00;;
12880;SDS011;6508;53.786;9.996;2022-07-23T13:45:35;3.20;;;3.10;;
12880;SDS011;6508;53.786;9.996;2022-07-23T13:48:03;3.03;;;2.92;;
12880;SDS011;6508;53.786;9.996;2022-07-23T13:50:33;3.63;;;3.35;;
12880;SDS011;6508;53.786;9.996;2022-07-23T13:53:01;3.35;;;3.17;;
12880;SDS011;6508;53.786;9.996;2022-07-23T13:55:29;2.90;;;2.80;;
12880;SDS011;6508;53.786;9.996;2022-07-23T13:57:58;3.20;;;3.10;;
12880;SDS011;6508;53.786;9.996;2022-07-23T14:00:27;3.40;;;3.30;;
12880;SDS011;6508;53.786;9.996;2022-07-23T14:03:15;3.35;;;3.13;;
12880;SDS011;6508;53.786;9.996;2022-07-23T14:05:43;3.13;;;3.03;;
12880;SDS011;6508;53.786;9.996;2022-07-23T14:08:11;3.38;;;2.70;;
12880;SDS011;6508;53.786;9.996;2022-07-23T14:10:40;2.72;;;2.63;;
12880;SDS011;6508;53.786;9.996;2022-07-23T14:13:08;2.97;;;2.88;;
12880;SDS011;6508;53.786;9.996;2022-07-23T14:15:37;3.08;;;2.88;;
12880;SDS011;6508;53.786;9.996;2022-07-23T14:18:06;2.42;;;2.33;;
12880;SDS011;6508;53.786;9.996;2022-07-23T14:20:35;2.80;;;2.70;;
12880;SDS011;6508;53.786;9.996;2022-07-23T14:23:03;2.20;;;2.20;;
12880;SDS011;6508;53.786;9.996;2022-07-23T14:25:32;2.92;;;2.83;;
12880;SDS011;6508;53.786;9.996;2022-07-23T14:27:59;2.58;;;2.58;;
12880;SDS011;6508;53.786;9.996;2022-07-23T14:30:27;3.00;;;2.72;;
12880;SDS011;6508;53.786;9.996;2022-07-23T14:33:01;2.38;;;2.38;;
12880;SDS011;6508;53.786;9.996;2022-07-23T14:35:29;1.98;;;1.98;;
12880;SDS011;6508;53.786;9.996;2022-07-23T14:37:57;2.75;;;2.53;;
12880;SDS011;6508;53.786;9.996;2022-07-23T14:40:25;2.25;;;2.15;;
12880;SDS011;6508;53.786;9.996;2022-07-23T14:42:54;2.03;;;2.00;;
12880;SDS011;6508;53.786;9.996;2022-07-23T14:45:22;2.28;;;2.17;;
12880;SDS011;6508;53.786;9.996;2022-07-23T14:47:49;2.15;;;2.10;;
12880;SDS011;6508;53.786;9.996;2022-07-23T14:50:18;3.13;;;2.97;;
12880;SDS011;6508;53.786;9.996;2022-07-23T14:52:46;2.10;;;2.10;;
12880;SDS011;6508;53.786;9.996;2022-07-23T14:55:14;1.92;;;1.92;;
12880;SDS011;6508;53.786;9.996;2022-07-23T14:57:44;2.67;;;2.58;;
12880;SDS011;6508;53.786;9.996;2022-07-23T15:00:12;2.42;;;2.42;;
12880;SDS011;6508;53.786;9.996;2022-07-23T15:02:42;2.47;;;2.30;;
12880;SDS011;6508;53.786;9.996;2022-07-23T15:05:20;2.30;;;2.20;;
12880;SDS011;6508;53.786;9.996;2022-07-23T15:07:48;2.20;;;2.10;;
12880;SDS011;6508;53.786;9.996;2022-07-23T15:10:16;2.20;;;2.10;;
12880;SDS011;6508;53.786;9.996;2022-07-23T15:13:05;2.10;;;2.10;;
12880;SDS011;6508;53.786;9.996;2022-07-23T15:15:34;2.22;;;2.13;;
12880;SDS011;6508;53.786;9.996;2022-07-23T15:18:03;2.33;;;2.10;;
12880;SDS011;6508;53.786;9.996;2022-07-23T15:20:32;2.30;;;2.20;;
12880;SDS011;6508;53.786;9.996;2022-07-23T15:23:06;2.70;;;2.50;;
12880;SDS011;6508;53.786;9.996;2022-07-23T15:25:35;1.98;;;1.90;;
12880;SDS011;6508;53.786;9.996;2022-07-23T15:28:03;2.80;;;1.98;;
12880;SDS011;6508;53.786;9.996;2022-07-23T15:30:34;1.98;;;1.98;;
12880;SDS011;6508;53.786;9.996;2022-07-23T15:33:03;2.33;;;2.03;;
12880;SDS011;6508;53.786;9.996;2022-07-23T15:35:33;2.03;;;1.92;;
12880;SDS011;6508;53.786;9.996;2022-07-23T15:38:00;2.45;;;2.35;;